sensor_id;sensor_type;location;lat;lon;timestamp;P1;durP1;ratioP1;P2;durP2;ratioP2
62574;SDS011;53112;45.602;11.904;2022-07-24T00:01:38;8.63;;;5.85;;
62574;SDS011;53112;45.602;11.904;2022-07-24T00:04:05;9.73;;;5.75;;
62574;SDS011;53112;45.602;11.904;2022-07-24T00:06:31;7.32;;;5.70;;
62574;SDS011;53112;45.602;11.904;2022-07-24T00:08:57;7.97;;;5.70;;
62574;SDS011;53112;45.602;11.904;2022-07-24T00:11:24;8.68;;;6.00;;
62574;SDS011;53112;45.602;11.904;2022-07-24T00:13:50;9.65;;;5.85;;
62574;SDS011;53112;45.602;11.904;2022-07-24T00:16:16;9.35;;;5.95;;
62574;SDS011;53112;45.602;11.904;2022-07-24T00:18:42;6.97;;;5.20;;
62574;SDS011;53112;45.602;11.904;2022-07-24T00:21:08;7.68;;;5.70;;
62574;SDS011;53112;45.602;11.904;2022-07-24T00:23:34;11.30;;;6.20;;
62574;SDS011;53112;45.602;11.904;2022-07-24T00:26:00;9.05;;;6.00;;
62574;SDS011;53112;45.602;11.904;2022-07-24T00:28:27;11.82;;;8.10;;
62574;SDS011;53112;45.602;11.904;2022-07-24T00:30:52;11.23;;;8.45;;
62574;SDS011;53112;45.602;11.904;2022-07-24T00:33:18;8.75;;;6.97;;
62574;SDS011;53112;45.602;11.904;2022-07-24T00:35:44;8.70;;;6.65;;
62574;SDS011;53112;45.602;11.904;2022-07-24T00:38:10;7.63;;;5.30;;
62574;SDS011;53112;45.602;11.904;2022-07-24T00:40:36;7.53;;;5.53;;
62574;SDS011;53112;45.602;11.904;2022-07-24T00:43:03;6.28;;;5.07;;
62574;SDS011;53112;45.602;11.904;2022-07-24T00:45:29;5.63;;;4.80;;
62574;SDS011;53112;45.602;11.904;2022-07-24T00:47:56;6.75;;;4.80;;
62574;SDS011;53112;45.602;11.904;2022-07-24T00:50:22;7.05;;;4.47;;
62574;SDS011;53112;45.602;11.904;2022-07-24T00:52:49;5.70;;;4.40;;
62574;SDS011;53112;45.602;11.904;2022-07-24T00:55:15;7.10;;;4.50;;
62574;SDS011;53112;45.602;11.904;2022-07-24T00:57:41;5.40;;;4.20;;
62574;SDS011;53112;45.602;11.904;2022-07-24T01:00:11;7.20;;;3.97;;
62574;SDS011;53112;45.602;11.904;2022-07-24T01:02:41;5.40;;;3.88;;
62574;SDS011;53112;45.602;11.904;2022-07-24T01:05:08;5.68;;;3.80;;
62574;SDS011;53112;45.602;11.904;2022-07-24T01:07:35;6.72;;;4.32;;
62574;SDS011;53112;45.602;11.904;2022-07-24T01:10:02;5.63;;;3.92;;
62574;SDS011;53112;45.602;11.904;2022-07-24T01:12:33;4.57;;;3.78;;
62574;SDS011;53112;45.602;11.904;2022-07-24T01:15:00;6.22;;;4.15;;
62574;SDS011;53112;45.602;11.904;2022-07-24T01:17:30;5.72;;;4.57;;
62574;SDS011;53112;45.602;11.904;2022-07-24T01:19:58;8.23;;;4.53;;
62574;SDS011;53112;45.602;11.904;2022-07-24T01:22:25;6.97;;;4.30;;
62574;SDS011;53112;45.602;11.904;2022-07-24T01:24:52;6.22;;;3.92;;
62574;SDS011;53112;45.602;11.904;2022-07-24T01:27:19;5.85;;;3.90;;
62574;SDS011;53112;45.602;11.904;2022-07-24T01:29:46;5.70;;;3.78;;
62574;SDS011;53112;45.602;11.904;2022-07-24T01:32:12;5.65;;;3.85;;
62574;SDS011;53112;45.602;11.904;2022-07-24T01:34:38;5.88;;;3.78;;
62574;SDS011;53112;45.602;11.904;2022-07-24T01:37:04;5.10;;;3.65;;
62574;SDS011;53112;45.602;11.904;2022-07-24T01:39:31;6.03;;;3.83;;
62574;SDS011;53112;45.602;11.904;2022-07-24T01:41:57;6.32;;;3.70;;
62574;SDS011;53112;45.602;11.904;2022-07-24T01:44:23;5.45;;;3.88;;
62574;SDS011;53112;45.602;11.904;2022-07-24T01:46:49;5.20;;;3.80;;
62574;SDS011;53112;45.602;11.904;2022-07-24T01:49:15;5.82;;;3.90;;
62574;SDS011;53112;45.602;11.904;2022-07-24T01:51:41;6.20;;;3.47;;
62574;SDS011;53112;45.602;11.904;2022-07-24T01:54:07;5.47;;;3.85;;
62574;SDS011;53112;45.602;11.904;2022-07-24T01:56:33;5.97;;;3.42;;
62574;SDS011;53112;45.602;11.904;2022-07-24T01:58:59;5.80;;;3.67;;
62574;SDS011;53112;45.602;11.904;2022-07-24T02:01:26;5.55;;;3.75;;
62574;SDS011;53112;45.602;11.904;2022-07-24T02:03:52;5.55;;;3.80;;
62574;SDS011;53112;45.602;11.904;2022-07-24T02:06:18;5.10;;;3.72;;
62574;SDS011;53112;45.602;11.904;2022-07-24T02:08:44;5.18;;;4.05;;
62574;SDS011;53112;45.602;11.904;2022-07-24T02:11:10;6.28;;;4.07;;
62574;SDS011;53112;45.602;11.904;2022-07-24T02:13:36;5.68;;;3.85;;
62574;SDS011;53112;45.602;11.904;2022-07-24T02:16:03;4.60;;;3.58;;
62574;SDS011;53112;45.602;11.904;2022-07-24T02:18:29;5.80;;;3.90;;
62574;SDS011;53112;45.602;11.904;2022-07-24T02:20:55;5.63;;;3.70;;
62574;SDS011;53112;45.602;11.904;2022-07-24T02:23:21;5.63;;;4.20;;
62574;SDS011;53112;45.602;11.904;2022-07-24T02:25:48;5.30;;;3.97;;
62574;SDS011;53112;45.602;11.904;2022-07-24T02:28:15;5.53;;;3.78;;
62574;SDS011;53112;45.602;11.904;2022-07-24T02:30:41;5.18;;;4.10;;
62574;SDS011;53112;45.602;11.904;2022-07-24T02:33:07;5.93;;;3.95;;
62574;SDS011;53112;45.602;11.904;2022-07-24T02:35:34;6.47;;;3.80;;
62574;SDS011;53112;45.602;11.904;2022-07-24T02:38:00;6.28;;;4.07;;
62574;SDS011;53112;45.602;11.904;2022-07-24T02:40:27;5.47;;;3.60;;
62574;SDS011;53112;45.602;11.904;2022-07-24T02:42:53;4.43;;;3.72;;
62574;SDS011;53112;45.602;11.904;2022-07-24T02:45:19;5.55;;;4.03;;
62574;SDS011;53112;45.602;11.904;2022-07-24T02:47:51;6.43;;;3.92;;
62574;SDS011;53112;45.602;11.904;2022-07-24T02:50:20;5.72;;;3.95;;
62574;SDS011;53112;45.602;11.904;2022-07-24T02:52:48;6.90;;;4.00;;
62574;SDS011;53112;45.602;11.904;2022-07-24T02:55:14;5.68;;;3.58;;
62574;SDS011;53112;45.602;11.904;2022-07-24T02:57:40;5.38;;;4.00;;
62574;SDS011;53112;45.602;11.904;2022-07-24T03:00:08;6.40;;;3.63;;
62574;SDS011;53112;45.602;11.904;2022-07-24T03:02:36;5.82;;;3.75;;
62574;SDS011;53112;45.602;11.904;2022-07-24T03:05:03;6.05;;;3.78;;
62574;SDS011;53112;45.602;11.904;2022-07-24T03:07:30;5.00;;;3.60;;
62574;SDS011;53112;45.602;11.904;2022-07-24T03:09:56;4.97;;;3.70;;
62574;SDS011;53112;45.602;11.904;2022-07-24T03:12:22;6.20;;;4.07;;
62574;SDS011;53112;45.602;11.904;2022-07-24T03:14:48;5.10;;;3.50;;
62574;SDS011;53112;45.602;11.904;2022-07-24T03:17:14;5.78;;;4.05;;
62574;SDS011;53112;45.602;11.904;2022-07-24T03:19:40;4.65;;;3.70;;
62574;SDS011;53112;45.602;11.904;2022-07-24T03:22:06;6.65;;;3.97;;
62574;SDS011;53112;45.602;11.904;2022-07-24T03:24:32;5.75;;;4.30;;
62574;SDS011;53112;45.602;11.904;2022-07-24T03:26:59;5.32;;;4.00;;
62574;SDS011;53112;45.602;11.904;2022-07-24T03:29:25;5.28;;;4.10;;
62574;SDS011;53112;45.602;11.904;2022-07-24T03:31:51;5.28;;;3.92;;
62574;SDS011;53112;45.602;11.904;2022-07-24T03:34:18;6.25;;;3.95;;
62574;SDS011;53112;45.602;11.904;2022-07-24T03:36:44;5.88;;;4.03;;
62574;SDS011;53112;45.602;11.904;2022-07-24T03:39:10;7.22;;;4.47;;
62574;SDS011;53112;45.602;11.904;2022-07-24T03:41:36;5.85;;;4.25;;
62574;SDS011;53112;45.602;11.904;2022-07-24T03:44:03;7.53;;;5.10;;
62574;SDS011;53112;45.602;11.904;2022-07-24T03:46:29;7.10;;;4.90;;
62574;SDS011;53112;45.602;11.904;2022-07-24T03:48:56;6.50;;;4.90;;
62574;SDS011;53112;45.602;11.904;2022-07-24T03:51:22;6.85;;;4.90;;
62574;SDS011;53112;45.602;11.904;2022-07-24T03:53:48;6.55;;;4.20;;
62574;SDS011;53112;45.602;11.904;2022-07-24T03:56:14;6.10;;;4.30;;
62574;SDS011;53112;45.602;11.904;2022-07-24T03:58:42;5.97;;;4.68;;
62574;SDS011;53112;45.602;11.904;2022-07-24T04:01:09;6.57;;;4.72;;
62574;SDS011;53112;45.602;11.904;2022-07-24T04:03:35;6.10;;;4.72;;
62574;SDS011;53112;45.602;11.904;2022-07-24T04:06:01;8.07;;;4.38;;
62574;SDS011;53112;45.602;11.904;2022-07-24T04:08:32;6.15;;;4.75;;
62574;SDS011;53112;45.602;11.904;2022-07-24T04:10:58;6.72;;;4.60;;
62574;SDS011;53112;45.602;11.904;2022-07-24T04:13:25;5.82;;;4.75;;
62574;SDS011;53112;45.602;11.904;2022-07-24T04:15:52;7.40;;;4.65;;
62574;SDS011;53112;45.602;11.904;2022-07-24T04:18:19;6.90;;;4.93;;
62574;SDS011;53112;45.602;11.904;2022-07-24T04:20:45;5.40;;;4.50;;
62574;SDS011;53112;45.602;11.904;2022-07-24T04:23:11;6.32;;;4.35;;
62574;SDS011;53112;45.602;11.904;2022-07-24T04:25:37;7.57;;;4.80;;
62574;SDS011;53112;45.602;11.904;2022-07-24T04:28:03;7.97;;;5.05;;
62574;SDS011;53112;45.602;11.904;2022-07-24T04:30:29;5.95;;;4.45;;
62574;SDS011;53112;45.602;11.904;2022-07-24T04:32:56;8.15;;;4.63;;
62574;SDS011;53112;45.602;11.904;2022-07-24T04:35:22;7.75;;;4.55;;
62574;SDS011;53112;45.602;11.904;2022-07-24T04:37:48;7.60;;;4.85;;
62574;SDS011;53112;45.602;11.904;2022-07-24T04:40:15;6.28;;;4.20;;
62574;SDS011;53112;45.602;11.904;2022-07-24T04:42:41;6.10;;;4.13;;
62574;SDS011;53112;45.602;11.904;2022-07-24T04:45:07;5.70;;;4.43;;
62574;SDS011;53112;45.602;11.904;2022-07-24T04:47:35;19.27;;;7.00;;
62574;SDS011;53112;45.602;11.904;2022-07-24T04:50:02;9.10;;;4.72;;
62574;SDS011;53112;45.602;11.904;2022-07-24T04:52:30;6.70;;;4.55;;
62574;SDS011;53112;45.602;11.904;2022-07-24T04:54:56;6.47;;;4.47;;
62574;SDS011;53112;45.602;11.904;2022-07-24T04:57:22;7.43;;;5.25;;
62574;SDS011;53112;45.602;11.904;2022-07-24T04:59:48;6.57;;;4.70;;
62574;SDS011;53112;45.602;11.904;2022-07-24T05:02:15;7.07;;;4.72;;
62574;SDS011;53112;45.602;11.904;2022-07-24T05:04:41;7.70;;;4.93;;
62574;SDS011;53112;45.602;11.904;2022-07-24T05:07:07;7.72;;;5.25;;
62574;SDS011;53112;45.602;11.904;2022-07-24T05:09:33;6.28;;;4.72;;
62574;SDS011;53112;45.602;11.904;2022-07-24T05:11:59;7.18;;;5.00;;
62574;SDS011;53112;45.602;11.904;2022-07-24T05:14:24;6.68;;;4.80;;
62574;SDS011;53112;45.602;11.904;2022-07-24T05:16:50;6.78;;;4.50;;
62574;SDS011;53112;45.602;11.904;2022-07-24T05:19:16;7.80;;;4.38;;
62574;SDS011;53112;45.602;11.904;2022-07-24T05:21:42;8.18;;;4.68;;
62574;SDS011;53112;45.602;11.904;2022-07-24T05:24:09;7.95;;;4.88;;
62574;SDS011;53112;45.602;11.904;2022-07-24T05:26:35;7.03;;;4.82;;
62574;SDS011;53112;45.602;11.904;2022-07-24T05:29:01;7.57;;;4.70;;
62574;SDS011;53112;45.602;11.904;2022-07-24T05:31:29;7.25;;;4.93;;
62574;SDS011;53112;45.602;11.904;2022-07-24T05:33:55;9.75;;;5.43;;
62574;SDS011;53112;45.602;11.904;2022-07-24T05:36:20;8.93;;;5.60;;
62574;SDS011;53112;45.602;11.904;2022-07-24T05:38:46;7.93;;;5.45;;
62574;SDS011;53112;45.602;11.904;2022-07-24T05:41:13;8.32;;;5.78;;
62574;SDS011;53112;45.602;11.904;2022-07-24T05:43:39;10.43;;;5.40;;
62574;SDS011;53112;45.602;11.904;2022-07-24T05:46:05;7.32;;;5.78;;
62574;SDS011;53112;45.602;11.904;2022-07-24T05:48:31;8.25;;;5.80;;
62574;SDS011;53112;45.602;11.904;2022-07-24T05:50:57;6.45;;;5.03;;
62574;SDS011;53112;45.602;11.904;2022-07-24T05:53:24;5.90;;;4.95;;
62574;SDS011;53112;45.602;11.904;2022-07-24T05:55:50;8.57;;;5.63;;
62574;SDS011;53112;45.602;11.904;2022-07-24T05:58:17;6.65;;;5.22;;
62574;SDS011;53112;45.602;11.904;2022-07-24T06:00:43;6.18;;;5.05;;
62574;SDS011;53112;45.602;11.904;2022-07-24T06:03:10;7.78;;;5.18;;
62574;SDS011;53112;45.602;11.904;2022-07-24T06:05:36;7.53;;;4.95;;
62574;SDS011;53112;45.602;11.904;2022-07-24T06:08:02;7.18;;;5.40;;
62574;SDS011;53112;45.602;11.904;2022-07-24T06:10:29;8.40;;;5.20;;
62574;SDS011;53112;45.602;11.904;2022-07-24T06:12:55;8.05;;;5.28;;
62574;SDS011;53112;45.602;11.904;2022-07-24T06:15:21;7.88;;;5.20;;
62574;SDS011;53112;45.602;11.904;2022-07-24T06:17:47;10.40;;;6.50;;
62574;SDS011;53112;45.602;11.904;2022-07-24T06:20:13;7.88;;;5.70;;
62574;SDS011;53112;45.602;11.904;2022-07-24T06:22:40;8.05;;;5.35;;
62574;SDS011;53112;45.602;11.904;2022-07-24T06:25:06;6.80;;;5.20;;
62574;SDS011;53112;45.602;11.904;2022-07-24T06:27:33;8.38;;;5.20;;
62574;SDS011;53112;45.602;11.904;2022-07-24T06:29:59;7.15;;;5.20;;
62574;SDS011;53112;45.602;11.904;2022-07-24T06:32:25;9.10;;;5.60;;
62574;SDS011;53112;45.602;11.904;2022-07-24T06:34:51;6.75;;;5.35;;
62574;SDS011;53112;45.602;11.904;2022-07-24T06:37:17;7.10;;;5.40;;
62574;SDS011;53112;45.602;11.904;2022-07-24T06:39:43;7.72;;;5.38;;
62574;SDS011;53112;45.602;11.904;2022-07-24T06:42:09;6.75;;;5.43;;
62574;SDS011;53112;45.602;11.904;2022-07-24T06:44:35;6.72;;;5.18;;
62574;SDS011;53112;45.602;11.904;2022-07-24T06:47:04;7.00;;;6.03;;
62574;SDS011;53112;45.602;11.904;2022-07-24T06:49:30;9.27;;;5.70;;
62574;SDS011;53112;45.602;11.904;2022-07-24T06:51:56;9.05;;;5.43;;
62574;SDS011;53112;45.602;11.904;2022-07-24T06:54:22;5.95;;;5.10;;
62574;SDS011;53112;45.602;11.904;2022-07-24T06:56:48;6.43;;;5.30;;
62574;SDS011;53112;45.602;11.904;2022-07-24T06:59:14;6.00;;;5.35;;
62574;SDS011;53112;45.602;11.904;2022-07-24T07:01:40;7.05;;;5.30;;
62574;SDS011;53112;45.602;11.904;2022-07-24T07:04:06;8.55;;;5.20;;
62574;SDS011;53112;45.602;11.904;2022-07-24T07:06:31;6.38;;;4.82;;
62574;SDS011;53112;45.602;11.904;2022-07-24T07:08:58;7.05;;;5.13;;
62574;SDS011;53112;45.602;11.904;2022-07-24T07:11:24;8.30;;;5.10;;
62574;SDS011;53112;45.602;11.904;2022-07-24T07:13:50;6.80;;;5.70;;
62574;SDS011;53112;45.602;11.904;2022-07-24T07:16:16;7.90;;;5.60;;
62574;SDS011;53112;45.602;11.904;2022-07-24T07:18:41;6.82;;;5.35;;
62574;SDS011;53112;45.602;11.904;2022-07-24T07:21:07;8.05;;;4.90;;
62574;SDS011;53112;45.602;11.904;2022-07-24T07:23:33;8.70;;;5.93;;
62574;SDS011;53112;45.602;11.904;2022-07-24T07:25:59;6.78;;;5.57;;
62574;SDS011;53112;45.602;11.904;2022-07-24T07:28:26;5.57;;;4.47;;
62574;SDS011;53112;45.602;11.904;2022-07-24T07:30:52;7.68;;;4.30;;
62574;SDS011;53112;45.602;11.904;2022-07-24T07:33:18;6.63;;;4.20;;
62574;SDS011;53112;45.602;11.904;2022-07-24T07:35:44;7.10;;;4.25;;
62574;SDS011;53112;45.602;11.904;2022-07-24T07:38:10;5.15;;;4.10;;
62574;SDS011;53112;45.602;11.904;2022-07-24T07:40:36;5.88;;;4.10;;
62574;SDS011;53112;45.602;11.904;2022-07-24T07:43:02;7.63;;;4.38;;
62574;SDS011;53112;45.602;11.904;2022-07-24T07:45:28;5.85;;;3.70;;
62574;SDS011;53112;45.602;11.904;2022-07-24T07:47:54;4.70;;;3.90;;
62574;SDS011;53112;45.602;11.904;2022-07-24T07:50:20;4.82;;;3.80;;
62574;SDS011;53112;45.602;11.904;2022-07-24T07:52:46;8.88;;;3.80;;
62574;SDS011;53112;45.602;11.904;2022-07-24T07:55:12;6.70;;;4.00;;
62574;SDS011;53112;45.602;11.904;2022-07-24T07:57:38;4.43;;;3.78;;
62574;SDS011;53112;45.602;11.904;2022-07-24T08:00:07;5.93;;;3.65;;
62574;SDS011;53112;45.602;11.904;2022-07-24T08:02:34;4.88;;;3.47;;
62574;SDS011;53112;45.602;11.904;2022-07-24T08:05:00;4.07;;;3.50;;
62574;SDS011;53112;45.602;11.904;2022-07-24T08:07:26;4.78;;;3.72;;
62574;SDS011;53112;45.602;11.904;2022-07-24T08:09:51;4.75;;;3.78;;
62574;SDS011;53112;45.602;11.904;2022-07-24T08:12:17;5.55;;;3.70;;
62574;SDS011;53112;45.602;11.904;2022-07-24T08:14:44;9.10;;;4.00;;
62574;SDS011;53112;45.602;11.904;2022-07-24T08:17:10;3.67;;;3.35;;
62574;SDS011;53112;45.602;11.904;2022-07-24T08:19:37;4.50;;;3.80;;
62574;SDS011;53112;45.602;11.904;2022-07-24T08:22:04;5.57;;;3.78;;
62574;SDS011;53112;45.602;11.904;2022-07-24T08:24:30;6.65;;;3.65;;
62574;SDS011;53112;45.602;11.904;2022-07-24T08:26:58;4.53;;;3.75;;
62574;SDS011;53112;45.602;11.904;2022-07-24T08:29:25;6.05;;;3.70;;
62574;SDS011;53112;45.602;11.904;2022-07-24T08:31:57;4.43;;;3.83;;
62574;SDS011;53112;45.602;11.904;2022-07-24T08:34:23;4.13;;;3.42;;
62574;SDS011;53112;45.602;11.904;2022-07-24T08:36:50;5.35;;;3.80;;
62574;SDS011;53112;45.602;11.904;2022-07-24T08:39:17;4.22;;;3.30;;
62574;SDS011;53112;45.602;11.904;2022-07-24T08:41:43;5.15;;;3.40;;
62574;SDS011;53112;45.602;11.904;2022-07-24T08:44:09;7.38;;;3.47;;
62574;SDS011;53112;45.602;11.904;2022-07-24T08:46:40;5.25;;;3.58;;
62574;SDS011;53112;45.602;11.904;2022-07-24T08:49:09;4.07;;;3.50;;
62574;SDS011;53112;45.602;11.904;2022-07-24T08:51:38;5.28;;;3.50;;
62574;SDS011;53112;45.602;11.904;2022-07-24T08:54:06;5.97;;;3.58;;
62574;SDS011;53112;45.602;11.904;2022-07-24T08:56:33;5.85;;;3.78;;
62574;SDS011;53112;45.602;11.904;2022-07-24T08:59:01;6.28;;;3.70;;
62574;SDS011;53112;45.602;11.904;2022-07-24T09:01:29;4.20;;;3.50;;
62574;SDS011;53112;45.602;11.904;2022-07-24T09:03:55;5.47;;;3.80;;
62574;SDS011;53112;45.602;11.904;2022-07-24T09:06:21;6.15;;;3.90;;
62574;SDS011;53112;45.602;11.904;2022-07-24T09:08:58;5.68;;;3.70;;
62574;SDS011;53112;45.602;11.904;2022-07-24T09:11:26;4.75;;;3.60;;
62574;SDS011;53112;45.602;11.904;2022-07-24T09:13:59;3.88;;;3.40;;
62574;SDS011;53112;45.602;11.904;2022-07-24T09:16:45;6.05;;;4.00;;
62574;SDS011;53112;45.602;11.904;2022-07-24T09:19:11;7.13;;;3.72;;
62574;SDS011;53112;45.602;11.904;2022-07-24T09:21:39;4.63;;;3.80;;
62574;SDS011;53112;45.602;11.904;2022-07-24T09:24:19;5.15;;;3.80;;
62574;SDS011;53112;45.602;11.904;2022-07-24T09:29:17;5.60;;;3.42;;
62574;SDS011;53112;45.602;11.904;2022-07-24T09:31:49;5.47;;;3.70;;
62574;SDS011;53112;45.602;11.904;2022-07-24T09:34:26;6.55;;;3.45;;
62574;SDS011;53112;45.602;11.904;2022-07-24T09:37:01;5.50;;;3.55;;
62574;SDS011;53112;45.602;11.904;2022-07-24T09:39:31;4.47;;;3.42;;
62574;SDS011;53112;45.602;11.904;2022-07-24T09:41:59;4.55;;;3.67;;
62574;SDS011;53112;45.602;11.904;2022-07-24T09:44:26;5.38;;;3.40;;
62574;SDS011;53112;45.602;11.904;2022-07-24T09:46:55;5.40;;;3.80;;
62574;SDS011;53112;45.602;11.904;2022-07-24T09:49:28;5.28;;;3.60;;
62574;SDS011;53112;45.602;11.904;2022-07-24T09:54:34;4.82;;;3.72;;
62574;SDS011;53112;45.602;11.904;2022-07-24T10:02:22;5.65;;;3.85;;
62574;SDS011;53112;45.602;11.904;2022-07-24T10:04:50;4.32;;;3.70;;
62574;SDS011;53112;45.602;11.904;2022-07-24T10:07:19;8.13;;;4.38;;
62574;SDS011;53112;45.602;11.904;2022-07-24T10:09:48;4.97;;;3.88;;
62574;SDS011;53112;45.602;11.904;2022-07-24T10:12:17;4.93;;;3.95;;
62574;SDS011;53112;45.602;11.904;2022-07-24T10:15:01;5.68;;;3.97;;
62574;SDS011;53112;45.602;11.904;2022-07-24T10:20:06;5.90;;;3.90;;
62574;SDS011;53112;45.602;11.904;2022-07-24T10:23:03;4.80;;;4.05;;
62574;SDS011;53112;45.602;11.904;2022-07-24T10:25:33;6.32;;;3.97;;
62574;SDS011;53112;45.602;11.904;2022-07-24T10:28:16;5.43;;;4.07;;
62574;SDS011;53112;45.602;11.904;2022-07-24T10:31:00;6.32;;;3.90;;
62574;SDS011;53112;45.602;11.904;2022-07-24T10:33:27;5.45;;;3.60;;
62574;SDS011;53112;45.602;11.904;2022-07-24T10:35:54;5.55;;;3.97;;
62574;SDS011;53112;45.602;11.904;2022-07-24T10:38:28;5.05;;;4.10;;
62574;SDS011;53112;45.602;11.904;2022-07-24T10:41:02;6.15;;;4.00;;
62574;SDS011;53112;45.602;11.904;2022-07-24T10:43:34;4.63;;;3.80;;
62574;SDS011;53112;45.602;11.904;2022-07-24T10:48:28;6.53;;;4.10;;
62574;SDS011;53112;45.602;11.904;2022-07-24T11:04:03;5.97;;;4.13;;
62574;SDS011;53112;45.602;11.904;2022-07-24T11:06:47;5.50;;;4.00;;
62574;SDS011;53112;45.602;11.904;2022-07-24T11:09:14;5.13;;;4.30;;
62574;SDS011;53112;45.602;11.904;2022-07-24T11:11:48;4.57;;;3.80;;
62574;SDS011;53112;45.602;11.904;2022-07-24T11:20:09;5.10;;;4.03;;
62574;SDS011;53112;45.602;11.904;2022-07-24T11:22:53;7.03;;;3.85;;
62574;SDS011;53112;45.602;11.904;2022-07-24T11:25:26;7.03;;;3.78;;
62574;SDS011;53112;45.602;11.904;2022-07-24T11:27:55;4.88;;;3.72;;
62574;SDS011;53112;45.602;11.904;2022-07-24T11:30:23;5.50;;;3.80;;
62574;SDS011;53112;45.602;11.904;2022-07-24T11:32:51;4.78;;;3.65;;
62574;SDS011;53112;45.602;11.904;2022-07-24T11:35:25;5.68;;;3.83;;
62574;SDS011;53112;45.602;11.904;2022-07-24T11:37:58;4.50;;;3.75;;
62574;SDS011;53112;45.602;11.904;2022-07-24T11:40:26;5.60;;;3.63;;
62574;SDS011;53112;45.602;11.904;2022-07-24T11:42:59;6.13;;;3.92;;
62574;SDS011;53112;45.602;11.904;2022-07-24T11:45:28;6.22;;;3.70;;
62574;SDS011;53112;45.602;11.904;2022-07-24T11:47:54;6.57;;;4.07;;
62574;SDS011;53112;45.602;11.904;2022-07-24T11:50:21;5.30;;;3.78;;
62574;SDS011;53112;45.602;11.904;2022-07-24T11:52:48;4.63;;;3.38;;
62574;SDS011;53112;45.602;11.904;2022-07-24T11:55:16;6.43;;;3.85;;
62574;SDS011;53112;45.602;11.904;2022-07-24T11:57:46;5.07;;;3.72;;
62574;SDS011;53112;45.602;11.904;2022-07-24T12:00:15;4.93;;;3.80;;
62574;SDS011;53112;45.602;11.904;2022-07-24T12:02:44;4.60;;;3.53;;
62574;SDS011;53112;45.602;11.904;2022-07-24T12:07:55;6.45;;;4.00;;
62574;SDS011;53112;45.602;11.904;2022-07-24T12:10:23;5.78;;;3.80;;
62574;SDS011;53112;45.602;11.904;2022-07-24T12:12:50;5.70;;;3.60;;
62574;SDS011;53112;45.602;11.904;2022-07-24T12:15:19;6.28;;;3.97;;
62574;SDS011;53112;45.602;11.904;2022-07-24T12:17:53;6.97;;;3.40;;
62574;SDS011;53112;45.602;11.904;2022-07-24T12:20:27;4.55;;;3.65;;
62574;SDS011;53112;45.602;11.904;2022-07-24T12:23:01;5.65;;;3.72;;
62574;SDS011;53112;45.602;11.904;2022-07-24T12:25:28;4.40;;;3.58;;
62574;SDS011;53112;45.602;11.904;2022-07-24T12:28:05;4.85;;;3.60;;
62574;SDS011;53112;45.602;11.904;2022-07-24T12:30:39;5.32;;;3.70;;
62574;SDS011;53112;45.602;11.904;2022-07-24T12:36:01;6.88;;;4.05;;
62574;SDS011;53112;45.602;11.904;2022-07-24T12:38:55;6.55;;;3.35;;
62574;SDS011;53112;45.602;11.904;2022-07-24T12:41:23;4.85;;;3.50;;
62574;SDS011;53112;45.602;11.904;2022-07-24T12:51:26;8.47;;;3.60;;
62574;SDS011;53112;45.602;11.904;2022-07-24T12:54:13;5.72;;;3.50;;
62574;SDS011;53112;45.602;11.904;2022-07-24T12:56:54;8.15;;;3.50;;
62574;SDS011;53112;45.602;11.904;2022-07-24T13:01:55;5.38;;;3.50;;
62574;SDS011;53112;45.602;11.904;2022-07-24T13:04:23;8.40;;;3.37;;
62574;SDS011;53112;45.602;11.904;2022-07-24T13:06:52;5.93;;;3.67;;
62574;SDS011;53112;45.602;11.904;2022-07-24T13:09:20;6.43;;;3.20;;
62574;SDS011;53112;45.602;11.904;2022-07-24T13:11:48;4.43;;;3.05;;
62574;SDS011;53112;45.602;11.904;2022-07-24T13:14:16;4.35;;;3.20;;
62574;SDS011;53112;45.602;11.904;2022-07-24T13:16:44;4.65;;;3.10;;
62574;SDS011;53112;45.602;11.904;2022-07-24T13:19:11;4.35;;;3.25;;
62574;SDS011;53112;45.602;11.904;2022-07-24T13:21:38;4.15;;;3.17;;
62574;SDS011;53112;45.602;11.904;2022-07-24T13:24:05;4.00;;;3.00;;
62574;SDS011;53112;45.602;11.904;2022-07-24T13:26:32;4.35;;;3.10;;
62574;SDS011;53112;45.602;11.904;2022-07-24T13:29:00;4.30;;;3.08;;
62574;SDS011;53112;45.602;11.904;2022-07-24T13:31:26;5.38;;;3.30;;
62574;SDS011;53112;45.602;11.904;2022-07-24T13:33:52;5.95;;;3.10;;
62574;SDS011;53112;45.602;11.904;2022-07-24T13:36:18;4.28;;;3.17;;
62574;SDS011;53112;45.602;11.904;2022-07-24T13:38:44;4.43;;;3.00;;
62574;SDS011;53112;45.602;11.904;2022-07-24T13:41:11;5.88;;;3.40;;
62574;SDS011;53112;45.602;11.904;2022-07-24T13:43:38;3.75;;;3.10;;
62574;SDS011;53112;45.602;11.904;2022-07-24T13:46:04;4.32;;;2.95;;
62574;SDS011;53112;45.602;11.904;2022-07-24T13:48:31;4.18;;;2.90;;
62574;SDS011;53112;45.602;11.904;2022-07-24T13:50:57;4.28;;;2.85;;
62574;SDS011;53112;45.602;11.904;2022-07-24T13:53:23;4.90;;;3.00;;
62574;SDS011;53112;45.602;11.904;2022-07-24T13:55:49;4.47;;;3.00;;
62574;SDS011;53112;45.602;11.904;2022-07-24T13:58:18;4.65;;;3.03;;
62574;SDS011;53112;45.602;11.904;2022-07-24T14:00:44;4.30;;;3.00;;
62574;SDS011;53112;45.602;11.904;2022-07-24T14:03:10;4.63;;;3.00;;
62574;SDS011;53112;45.602;11.904;2022-07-24T14:05:36;4.10;;;2.90;;
62574;SDS011;53112;45.602;11.904;2022-07-24T14:08:05;4.57;;;2.92;;
62574;SDS011;53112;45.602;11.904;2022-07-24T14:10:31;4.30;;;2.80;;
62574;SDS011;53112;45.602;11.904;2022-07-24T14:12:58;6.93;;;3.05;;
62574;SDS011;53112;45.602;11.904;2022-07-24T14:15:24;5.50;;;3.30;;
62574;SDS011;53112;45.602;11.904;2022-07-24T14:17:50;4.28;;;3.00;;
62574;SDS011;53112;45.602;11.904;2022-07-24T14:20:16;3.63;;;3.20;;
62574;SDS011;53112;45.602;11.904;2022-07-24T14:22:42;4.53;;;3.20;;
62574;SDS011;53112;45.602;11.904;2022-07-24T14:25:08;4.80;;;3.22;;
62574;SDS011;53112;45.602;11.904;2022-07-24T14:27:35;5.00;;;3.30;;
62574;SDS011;53112;45.602;11.904;2022-07-24T14:30:01;4.68;;;2.92;;
62574;SDS011;53112;45.602;11.904;2022-07-24T14:32:28;4.20;;;2.90;;
62574;SDS011;53112;45.602;11.904;2022-07-24T14:34:54;4.20;;;2.95;;
62574;SDS011;53112;45.602;11.904;2022-07-24T14:37:20;3.03;;;2.70;;
62574;SDS011;53112;45.602;11.904;2022-07-24T14:39:46;3.08;;;2.50;;
62574;SDS011;53112;45.602;11.904;2022-07-24T14:42:12;6.03;;;3.38;;
62574;SDS011;53112;45.602;11.904;2022-07-24T14:44:38;6.57;;;2.88;;
62574;SDS011;53112;45.602;11.904;2022-07-24T14:47:04;4.57;;;2.80;;
62574;SDS011;53112;45.602;11.904;2022-07-24T14:49:30;4.13;;;2.78;;
62574;SDS011;53112;45.602;11.904;2022-07-24T14:51:57;6.78;;;3.20;;
62574;SDS011;53112;45.602;11.904;2022-07-24T14:54:24;6.25;;;3.20;;
62574;SDS011;53112;45.602;11.904;2022-07-24T14:56:50;5.82;;;3.28;;
62574;SDS011;53112;45.602;11.904;2022-07-24T14:59:16;4.72;;;3.40;;
62574;SDS011;53112;45.602;11.904;2022-07-24T15:01:42;7.43;;;3.22;;
62574;SDS011;53112;45.602;11.904;2022-07-24T15:04:08;4.70;;;3.20;;
62574;SDS011;53112;45.602;11.904;2022-07-24T15:06:34;4.45;;;3.30;;
62574;SDS011;53112;45.602;11.904;2022-07-24T15:09:02;6.43;;;3.15;;
62574;SDS011;53112;45.602;11.904;2022-07-24T15:11:28;4.50;;;3.33;;
62574;SDS011;53112;45.602;11.904;2022-07-24T15:13:54;4.15;;;3.25;;
62574;SDS011;53112;45.602;11.904;2022-07-24T15:16:20;5.72;;;3.17;;
62574;SDS011;53112;45.602;11.904;2022-07-24T15:18:46;5.03;;;3.05;;
62574;SDS011;53112;45.602;11.904;2022-07-24T15:21:12;5.10;;;3.20;;
62574;SDS011;53112;45.602;11.904;2022-07-24T15:23:38;5.22;;;3.10;;
62574;SDS011;53112;45.602;11.904;2022-07-24T15:26:04;4.97;;;3.30;;